Time;durP1;ratioP1;P1;durP2;ratioP2;P2;SDS_P1;SDS_P2;PMS_P1;PMS_P2;Temp;Humidity;BMP_temperature;BMP_pressure;BME280_temperature;BME280_humidity;BME280_pressure;Samples;Min_cycle;Max_cycle;Signal;HPM_P1;HPM_P2
2021/10/11 00:01:15;;;;;;;12.40;6.53;;;4.40;99.90;;;2.76;100.00;101677.34;5023321;28;20066;-76
2021/10/11 00:03:41;;;;;;;20.15;7.22;;;4.40;99.90;;;2.77;100.00;101696.44;5012726;28;20117;-76
2021/10/11 00:06:07;;;;;;;25.58;7.60;;;4.40;99.90;;;2.73;100.00;101685.16;5013539;28;20069;-76
2021/10/11 00:08:33;;;;;;;17.73;7.38;;;4.40;99.90;;;2.70;100.00;101673.88;5014350;28;20066;-76
2021/10/11 00:10:59;;;;;;;16.75;7.30;;;4.30;99.90;;;2.70;100.00;101663.47;5008380;28;20066;-76
2021/10/11 00:13:25;;;;;;;15.52;6.75;;;4.30;99.90;;;2.67;100.00;101644.41;5005453;28;20075;-76
2021/10/11 00:15:51;;;;;;;16.30;7.53;;;4.40;99.90;;;2.67;100.00;101648.75;5027651;28;20233;-76
2021/10/11 00:18:18;;;;;;;18.85;7.00;;;4.30;99.90;;;2.61;100.00;101678.22;5032143;28;20300;-76
2021/10/11 00:20:45;;;;;;;15.38;7.70;;;4.30;99.90;;;2.54;100.00;101634.88;5006831;28;20070;-76
2021/10/11 00:23:11;;;;;;;18.88;7.38;;;4.20;99.90;;;2.52;100.00;101638.34;5017644;28;20062;-77
2021/10/11 00:25:38;;;;;;;14.23;6.28;;;4.20;99.90;;;2.46;100.00;101650.47;5019584;28;20072;-76
2021/10/11 00:28:05;;;;;;;24.88;7.95;;;4.10;99.90;;;2.37;100.00;101633.97;5026671;28;20472;-76
2021/10/11 00:30:34;;;;;;;22.88;7.75;;;4.00;99.90;;;2.34;100.00;101631.38;5014366;28;20533;-76
2021/10/11 00:33:01;;;;;;;16.52;8.20;;;4.10;99.90;;;2.37;100.00;101642.63;5035411;28;20128;-76
2021/10/11 00:35:27;;;;;;;19.65;7.32;;;4.10;99.90;;;2.34;100.00;101645.25;5021978;28;20065;-76
2021/10/11 00:37:54;;;;;;;17.45;7.10;;;4.00;99.90;;;2.37;100.00;101642.63;5022652;28;20063;-76
2021/10/11 00:40:20;;;;;;;17.55;8.00;;;4.00;99.90;;;2.41;100.00;101651.31;5006019;28;20064;-76
2021/10/11 00:42:46;;;;;;;19.10;7.88;;;4.10;99.90;;;2.41;100.00;101640.91;5032138;28;20057;-76
2021/10/11 00:45:12;;;;;;;20.08;8.63;;;4.10;99.90;;;2.45;100.00;101640.06;5020213;28;20078;-76
2021/10/11 00:47:38;;;;;;;17.77;7.30;;;4.10;99.90;;;2.44;100.00;101643.50;5015164;28;20054;-76
2021/10/11 00:50:06;;;;;;;16.25;7.82;;;4.10;99.90;;;2.42;100.00;101637.47;5028052;28;20068;-77
2021/10/11 00:52:32;;;;;;;22.48;8.05;;;4.00;99.90;;;2.39;100.00;101679.88;5007018;28;20062;-76
2021/10/11 00:54:58;;;;;;;20.20;8.15;;;4.00;99.90;;;2.35;100.00;101680.75;5026879;28;20073;-76
2021/10/11 00:57:24;;;;;;;23.17;8.05;;;4.00;99.90;;;2.31;100.00;101692.03;5056367;28;20063;-76
2021/10/11 00:59:50;;;;;;;17.88;8.85;;;4.00;99.90;;;2.30;100.00;101686.81;5009640;28;20143;-77
2021/10/11 01:02:17;;;;;;;24.52;8.00;;;4.00;99.90;;;2.30;100.00;101689.41;5037462;28;20052;-77
2021/10/11 01:04:43;;;;;;;29.02;8.77;;;4.00;99.90;;;2.32;100.00;101718.88;5031694;28;20084;-77
2021/10/11 01:07:10;;;;;;;21.08;8.45;;;3.30;99.90;;;2.34;100.00;101732.75;5037964;28;20069;-77
2021/10/11 01:09:36;;;;;;;16.65;8.63;;;4.00;99.90;;;2.29;100.00;101732.75;5011547;28;20137;-76
2021/10/11 01:12:02;;;;;;;24.13;8.82;;;3.90;99.90;;;2.29;100.00;101757.84;5009096;28;20072;-77
2021/10/11 01:14:29;;;;;;;26.63;8.45;;;4.00;99.90;;;2.32;100.00;101737.94;5029504;28;20510;-76
2021/10/11 01:16:56;;;;;;;16.95;8.05;;;4.00;99.90;;;2.39;100.00;101775.22;5019827;28;21643;-77
2021/10/11 01:19:25;;;;;;;22.95;8.65;;;4.10;99.90;;;2.40;100.00;101763.97;5025346;28;20068;-76
2021/10/11 01:21:51;;;;;;;18.75;8.55;;;4.10;99.90;;;2.42;100.00;101798.63;5002335;28;20069;-76
2021/10/11 01:24:17;;;;;;;22.58;9.13;;;4.10;99.90;;;2.39;100.00;101772.63;5009044;28;21173;-76
2021/10/11 01:26:45;;;;;;;20.42;8.45;;;4.10;99.90;;;2.40;100.00;101800.34;5019498;28;20059;-77
2021/10/11 01:29:16;;;;;;;21.25;9.00;;;4.20;99.90;;;2.48;100.00;101819.44;4982844;28;23057;-77
2021/10/11 01:31:43;;;;;;;20.63;8.50;;;4.30;99.90;;;2.60;100.00;101811.69;5013677;28;20416;-76
2021/10/11 01:34:10;;;;;;;17.60;8.48;;;4.30;99.90;;;2.62;100.00;101843.78;5029359;28;20519;-77
2021/10/11 01:36:36;;;;;;;21.58;9.23;;;4.30;99.90;;;2.70;100.00;101850.72;5006315;28;20060;-76
2021/10/11 01:39:09;;;;;;;17.63;9.38;;;4.40;99.90;;;2.74;100.00;101835.13;5003091;28;20085;-76
2021/10/11 01:41:39;;;;;;;16.40;8.13;;;4.50;99.90;;;2.85;100.00;101848.19;5030935;28;21034;-76
2021/10/11 01:44:06;;;;;;;17.85;8.68;;;4.60;99.90;;;3.01;100.00;101886.41;5013477;28;20523;-76
2021/10/11 01:46:34;;;;;;;20.05;9.60;;;4.70;99.90;;;3.15;100.00;101914.19;5007159;28;20108;-76
2021/10/11 01:49:01;;;;;;;20.90;8.57;;;4.80;99.90;;;3.19;100.00;101923.75;5017788;28;20130;-76
2021/10/11 01:51:27;;;;;;;17.38;9.00;;;4.90;99.90;;;3.27;100.00;101958.50;5026863;28;20068;-76
2021/10/11 01:53:53;;;;;;;17.70;8.77;;;4.90;99.90;;;3.33;100.00;101916.88;5012886;28;20055;-76
2021/10/11 01:56:19;;;;;;;17.23;8.15;;;5.00;99.90;;;3.38;100.00;101893.44;5039291;28;20543;-76
2021/10/11 01:58:45;;;;;;;21.75;8.85;;;5.00;99.90;;;3.40;100.00;101931.63;4997628;28;20449;-76
2021/10/11 02:01:11;;;;;;;15.35;8.20;;;5.10;99.90;;;3.45;100.00;101901.25;5026221;28;20052;-76
2021/10/11 02:03:37;;;;;;;20.48;8.43;;;5.10;99.90;;;3.45;100.00;101843.97;5013383;28;20059;-76
2021/10/11 02:06:03;;;;;;;15.93;7.88;;;3.60;99.90;;;3.49;100.00;101855.25;5016887;28;20047;-76
2021/10/11 02:08:29;;;;;;;18.73;8.52;;;5.10;99.90;;;3.50;100.00;101857.00;5011615;28;20057;-77
2021/10/11 02:10:56;;;;;;;19.70;8.18;;;5.10;99.90;;;3.49;100.00;101839.63;5043141;28;20068;-77
2021/10/11 02:13:22;;;;;;;18.30;8.98;;;5.10;99.90;;;3.52;100.00;101849.19;5029425;28;20055;-77
2021/10/11 02:15:48;;;;;;;19.95;8.18;;;5.10;99.90;;;3.52;100.00;101847.47;5009983;28;20054;-76
2021/10/11 02:18:14;;;;;;;25.23;8.70;;;5.20;99.90;;;3.59;100.00;101853.53;4992925;28;20056;-76
2021/10/11 02:20:40;;;;;;;17.70;7.97;;;5.20;99.90;;;3.58;100.00;101812.72;4964657;28;20057;-76
2021/10/11 02:23:06;;;;;;;21.17;8.93;;;5.10;99.90;;;3.49;100.00;101843.09;4979360;28;20030;-77
2021/10/11 02:25:32;;;;;;;17.00;8.52;;;5.10;99.90;;;3.48;100.00;101859.59;5025740;28;20086;-77
2021/10/11 02:27:59;;;;;;;20.48;8.98;;;5.10;99.90;;;3.42;100.00;101858.72;4992447;28;20171;-77
2021/10/11 02:30:25;;;;;;;19.38;8.38;;;5.00;99.90;;;3.39;100.00;101799.72;4994876;28;20424;-76
2021/10/11 02:32:51;;;;;;;14.32;7.53;;;5.00;99.90;;;3.37;100.00;101840.50;5019423;28;20064;-76
2021/10/11 02:35:18;;;;;;;19.70;8.60;;;5.00;99.90;;;3.37;100.00;101796.25;5006596;28;20390;-77
2021/10/11 02:37:44;;;;;;;22.55;8.65;;;5.00;99.90;;;3.38;100.00;101804.91;4996676;28;20076;-77
2021/10/11 02:40:11;;;;;;;18.90;8.20;;;5.00;99.90;;;3.42;100.00;101812.72;4986597;28;20574;-77
2021/10/11 02:42:37;;;;;;;21.98;8.65;;;5.00;99.90;;;3.40;100.00;101821.41;5004025;28;20056;-76
2021/10/11 02:45:04;;;;;;;19.05;9.18;;;5.00;99.90;;;3.40;100.00;101783.22;5014110;28;20084;-76
2021/10/11 02:47:30;;;;;;;19.58;8.65;;;5.00;99.90;;;3.41;100.00;101803.19;5017909;28;20067;-77
2021/10/11 02:49:56;;;;;;;18.35;9.10;;;5.00;99.90;;;3.43;100.00;101792.75;5037090;28;20073;-76
2021/10/11 02:52:28;;;;;;;21.52;9.57;;;5.10;99.90;;;3.51;100.00;101797.97;5028103;28;20533;-76
2021/10/11 02:54:55;;;;;;;25.75;8.90;;;5.10;99.90;;;3.46;100.00;101796.25;5008688;28;20118;-77
2021/10/11 02:57:21;;;;;;;21.30;9.57;;;5.10;99.90;;;3.47;100.00;101784.94;5016239;28;20427;-77
2021/10/11 02:59:47;;;;;;;21.05;9.07;;;5.10;99.90;;;3.52;100.00;101820.53;5033099;28;20063;-76
2021/10/11 03:02:13;;;;;;;20.08;9.23;;;5.10;99.90;;;3.54;100.00;101784.94;5038374;28;21182;-74
2021/10/11 03:04:39;;;;;;;21.42;10.05;;;5.10;99.90;;;3.56;100.00;101783.22;5026882;28;20072;-75
2021/10/11 03:07:05;;;;;;;20.90;9.02;;;5.10;99.90;;;3.56;100.00;101765.84;5023157;28;20537;-75
2021/10/11 03:09:31;;;;;;;19.20;8.57;;;5.20;99.90;;;3.55;100.00;101742.41;5031740;28;20071;-76
2021/10/11 03:11:57;;;;;;;19.35;9.25;;;5.20;99.90;;;3.55;100.00;101745.88;5035091;28;20072;-76
2021/10/11 03:14:23;;;;;;;25.45;9.38;;;5.20;99.90;;;3.56;100.00;101745.00;5040057;28;20059;-75
2021/10/11 03:16:49;;;;;;;19.48;9.02;;;5.20;99.90;;;3.60;100.00;101743.28;5039901;28;20526;-76
2021/10/11 03:19:15;;;;;;;25.55;9.40;;;5.20;99.90;;;3.63;100.00;101738.06;5038752;28;20075;-75
2021/10/11 03:21:41;;;;;;;19.98;8.73;;;5.20;99.90;;;3.63;100.00;101712.03;5014497;28;20070;-75
2021/10/11 03:24:07;;;;;;;23.33;10.38;;;5.20;99.90;;;3.63;100.00;101705.06;5022901;28;20094;-75
2021/10/11 03:26:33;;;;;;;26.27;9.48;;;5.30;99.90;;;3.66;100.00;101702.44;5038967;28;20425;-76
2021/10/11 03:28:59;;;;;;;19.42;8.82;;;5.30;99.90;;;3.70;100.00;101704.19;5035998;28;20059;-75
2021/10/11 03:31:25;;;;;;;18.95;8.90;;;5.30;99.90;;;3.77;100.00;101711.97;5030645;28;20068;-76
2021/10/11 03:33:51;;;;;;;24.60;9.68;;;5.40;99.90;;;3.77;100.00;101701.56;5037941;28;20069;-76
2021/10/11 03:36:17;;;;;;;27.85;9.70;;;5.40;99.90;;;3.81;100.00;101705.91;5032838;28;20070;-75
2021/10/11 03:38:43;;;;;;;20.48;9.15;;;5.40;99.90;;;3.82;100.00;101712.81;5020765;28;20492;-75
2021/10/11 03:41:09;;;;;;;20.75;9.52;;;5.40;99.90;;;3.83;100.00;101756.25;4983172;28;20163;-75
2021/10/11 03:43:35;;;;;;;22.83;10.23;;;5.40;99.90;;;3.87;100.00;101792.72;5018625;28;20150;-76
2021/10/11 03:46:01;;;;;;;23.15;9.88;;;5.50;99.90;;;3.94;100.00;101805.75;5031954;28;20062;-75
2021/10/11 03:48:27;;;;;;;22.25;10.93;;;5.60;99.90;;;4.03;100.00;101805.72;5032162;28;20055;-75
2021/10/11 03:50:53;;;;;;;26.48;10.95;;;5.70;99.90;;;4.14;100.00;101809.16;5006726;28;20083;-76
2021/10/11 03:53:19;;;;;;;24.95;10.80;;;5.80;99.90;;;4.28;100.00;101875.19;5006402;28;20056;-75
2021/10/11 03:55:45;;;;;;;30.95;10.43;;;5.90;99.90;;;4.37;100.00;101874.28;5011448;28;20136;-75
2021/10/11 03:58:12;;;;;;;19.90;10.20;;;6.00;99.90;;;4.45;100.00;101801.22;5013683;28;20048;-76
2021/10/11 04:00:38;;;;;;;22.20;10.80;;;6.00;99.90;;;4.49;100.00;101905.56;5002497;28;20065;-75
2021/10/11 04:03:06;;;;;;;26.27;10.70;;;6.10;99.90;;;4.53;100.00;101856.84;5022863;28;20156;-75
2021/10/11 04:05:33;;;;;;;26.23;10.98;;;6.20;99.90;;;4.57;100.00;101855.97;5020825;28;20119;-75
2021/10/11 04:08:04;;;;;;;24.50;10.57;;;6.20;99.90;;;4.60;100.00;101795.97;5002837;28;20070;-75
2021/10/11 04:10:35;;;;;;;23.65;10.50;;;6.20;99.90;;;4.64;100.00;101775.94;5041863;28;20063;-75
2021/10/11 04:13:04;;;;;;;28.17;11.70;;;6.20;99.90;;;4.68;100.00;101770.69;5039622;28;20056;-75
2021/10/11 04:15:31;;;;;;;23.42;10.93;;;6.30;99.90;;;4.73;100.00;101766.34;5024331;28;20578;-75
2021/10/11 04:17:57;;;;;;;29.38;11.68;;;6.30;99.90;;;4.75;100.00;101779.34;5028741;28;20499;-75
2021/10/11 04:20:23;;;;;;;34.10;11.27;;;6.40;99.90;;;4.78;100.00;101781.97;5051196;28;20073;-75
2021/10/11 04:22:50;;;;;;;23.55;10.93;;;6.40;99.90;;;4.81;100.00;101788.91;5037478;28;20064;-76
2021/10/11 04:25:16;;;;;;;21.92;11.60;;;6.40;99.90;;;4.83;100.00;101789.75;5034057;28;20070;-75
2021/10/11 04:27:42;;;;;;;25.85;11.65;;;6.40;99.90;;;4.86;100.00;101794.94;5024146;28;20529;-75
2021/10/11 04:30:09;;;;;;;28.88;12.50;;;6.40;99.90;;;4.90;100.00;101814.94;5024525;28;20070;-75
2021/10/11 04:32:35;;;;;;;26.17;13.13;;;6.50;99.90;;;4.93;100.00;101822.75;5024411;28;20063;-76
2021/10/11 04:35:02;;;;;;;29.23;14.10;;;6.50;99.90;;;4.93;100.00;101846.25;5024419;28;20065;-76
2021/10/11 04:37:27;;;;;;;28.52;13.95;;;6.50;99.90;;;4.93;100.00;101825.38;5013445;28;20063;-75
2021/10/11 04:39:54;;;;;;;34.13;14.98;;;6.50;99.90;;;4.95;100.00;101815.78;5015383;28;20407;-75
2021/10/11 04:42:20;;;;;;;34.03;15.00;;;5.70;99.90;;;4.96;100.00;101822.72;5017008;28;20102;-76
2021/10/11 04:44:46;;;;;;;37.28;15.80;;;6.50;99.90;;;4.97;100.00;101829.69;5041396;28;20523;-76
2021/10/11 04:47:12;;;;;;;33.83;16.23;;;6.50;99.90;;;5.00;100.00;101823.59;5035396;28;20068;-75
2021/10/11 04:49:38;;;;;;;38.95;17.15;;;6.60;99.90;;;5.03;100.00;101814.00;5030452;28;20168;-76
2021/10/11 04:52:04;;;;;;;41.47;18.10;;;6.60;99.90;;;5.05;100.00;101817.44;5013346;28;20548;-76
2021/10/11 04:54:30;;;;;;;43.35;19.10;;;6.60;99.90;;;5.10;100.00;101820.06;5038549;28;20112;-76
2021/10/11 04:56:56;;;;;;;40.63;17.00;;;6.70;99.90;;;5.13;100.00;101828.72;5031993;28;20116;-75
2021/10/11 04:59:25;;;;;;;44.42;18.60;;;6.70;99.90;;;5.16;100.00;101830.44;5011488;28;20062;-76
2021/10/11 05:01:51;;;;;;;41.85;19.27;;;6.70;99.90;;;5.22;100.00;101834.75;5040006;28;20447;-76
2021/10/11 05:04:17;;;;;;;40.50;18.52;;;6.80;99.90;;;5.25;100.00;101834.75;5036296;28;20084;-76
2021/10/11 05:06:43;;;;;;;48.85;21.00;;;6.80;99.90;;;5.27;100.00;101835.59;5033956;28;20481;-76
2021/10/11 05:09:09;;;;;;;48.55;20.63;;;6.80;99.90;;;5.29;100.00;101837.34;5046575;28;20080;-76
2021/10/11 05:11:35;;;;;;;47.78;21.02;;;6.80;99.90;;;5.32;100.00;101837.28;5015703;28;20062;-76
2021/10/11 05:14:01;;;;;;;57.00;22.05;;;6.90;99.90;;;5.32;100.00;101837.28;5009183;28;20110;-76
2021/10/11 05:16:27;;;;;;;46.85;21.35;;;6.90;99.90;;;5.36;100.00;101838.16;5022666;28;20083;-77
2021/10/11 05:18:54;;;;;;;51.63;21.23;;;6.90;99.90;;;5.38;100.00;101841.63;5002676;28;20071;-76
2021/10/11 05:21:21;;;;;;;50.20;21.73;;;6.90;99.90;;;5.40;100.00;101847.69;5005211;28;20142;-77
2021/10/11 05:23:47;;;;;;;50.00;22.08;;;6.90;99.90;;;5.40;100.00;101846.81;4998947;28;20056;-76
2021/10/11 05:26:14;;;;;;;48.70;20.95;;;7.40;99.90;;;5.41;100.00;101859.88;4995587;28;20061;-77
2021/10/11 05:28:40;;;;;;;58.97;21.70;;;7.00;99.90;;;5.44;100.00;101852.03;5001475;28;20083;-76
2021/10/11 05:31:07;;;;;;;58.65;23.25;;;7.00;99.90;;;5.46;100.00;101858.09;5002744;28;20416;-76
2021/10/11 05:33:35;;;;;;;55.50;21.80;;;7.00;99.90;;;5.46;100.00;101868.53;5029968;28;20273;-76
2021/10/11 05:36:03;;;;;;;50.85;21.10;;;7.00;99.90;;;5.48;100.00;101878.97;5040365;28;20469;-76
2021/10/11 05:38:29;;;;;;;51.13;21.88;;;7.00;99.90;;;5.47;100.00;101872.91;5031184;28;20080;-76
2021/10/11 05:40:55;;;;;;;43.55;20.45;;;7.10;99.90;;;5.46;100.00;101876.38;5020645;28;20121;-77
2021/10/11 05:43:22;;;;;;;48.30;21.45;;;7.10;99.90;;;5.44;100.00;101883.38;5038013;28;20109;-76
2021/10/11 05:45:48;;;;;;;50.08;21.33;;;7.00;99.90;;;5.43;100.00;101881.63;5029715;28;20068;-77
2021/10/11 05:48:14;;;;;;;53.47;23.33;;;7.00;99.90;;;5.46;100.00;101889.44;5003887;28;20059;-77
2021/10/11 05:50:40;;;;;;;46.45;22.73;;;7.00;99.90;;;5.41;100.00;101886.00;4982735;28;20084;-76
2021/10/11 05:53:06;;;;;;;46.92;21.55;;;6.90;99.90;;;5.36;100.00;101890.41;5023694;28;20058;-76
2021/10/11 05:55:32;;;;;;;47.47;20.77;;;6.90;99.90;;;5.28;100.00;101887.81;5031219;28;20066;-77
2021/10/11 05:57:59;;;;;;;50.17;21.10;;;6.80;99.90;;;5.23;100.00;101894.81;5010809;28;20412;-77
2021/10/11 06:00:27;;;;;;;50.90;22.08;;;6.70;99.90;;;5.13;100.00;101895.75;4985681;28;20090;-77
2021/10/11 06:02:53;;;;;;;47.72;21.85;;;6.70;99.90;;;5.13;100.00;101906.19;5017449;28;20307;-77
2021/10/11 06:05:19;;;;;;;49.03;21.50;;;6.70;99.90;;;5.09;100.00;101900.09;5051701;28;20077;-77
2021/10/11 06:07:45;;;;;;;48.83;21.05;;;6.60;99.90;;;5.08;100.00;101900.13;5003605;28;20201;-77
2021/10/11 06:10:11;;;;;;;50.33;21.67;;;6.60;99.90;;;5.08;100.00;101936.69;4999003;28;20064;-77
2021/10/11 06:12:42;;;;;;;53.58;22.05;;;6.60;99.90;;;5.10;100.00;101997.59;5040328;28;20024;-77
2021/10/11 06:15:09;;;;;;;49.50;22.02;;;6.70;99.90;;;5.12;100.00;102017.59;5005460;28;20517;-77
2021/10/11 06:17:35;;;;;;;50.05;22.27;;;6.70;99.90;;;5.18;100.00;102065.44;5005525;28;20064;-77
2021/10/11 06:20:01;;;;;;;60.47;23.75;;;6.80;99.90;;;5.30;100.00;102102.84;5002459;28;20070;-77
2021/10/11 06:22:27;;;;;;;57.95;22.50;;;6.90;99.90;;;5.45;100.00;102146.34;5006130;28;20058;-77
2021/10/11 06:24:53;;;;;;;66.40;25.65;;;7.10;99.90;;;5.60;100.00;102157.63;5016119;28;20436;-76
2021/10/11 06:27:19;;;;;;;64.93;25.73;;;7.20;99.90;;;5.75;100.00;102212.47;4997816;28;20534;-76
2021/10/11 06:29:45;;;;;;;64.47;26.13;;;7.40;99.90;;;5.87;100.00;102237.69;4999945;28;20064;-77
2021/10/11 06:32:12;;;;;;;63.22;25.80;;;7.50;99.90;;;6.00;100.00;102268.16;5003377;28;20061;-77
2021/10/11 06:34:39;;;;;;;65.72;25.98;;;7.60;99.90;;;6.10;100.00;102287.34;4989162;28;20423;-77
2021/10/11 06:37:05;;;;;;;75.70;27.15;;;7.70;99.90;;;6.23;100.00;102285.56;4996707;28;20077;-77
2021/10/11 06:39:31;;;;;;;68.35;26.92;;;7.80;99.90;;;6.26;100.00;102316.91;5011653;28;20085;-77
2021/10/11 06:41:57;;;;;;;70.03;26.70;;;7.80;99.90;;;6.32;100.00;102350.91;5001569;28;20060;-77
2021/10/11 06:44:23;;;;;;;80.63;28.73;;;7.90;99.90;;;6.41;100.00;102371.81;5005939;28;20085;-77
2021/10/11 06:46:52;;;;;;;69.72;26.95;;;8.00;99.90;;;6.45;100.00;102383.16;5013536;28;20064;-77
2021/10/11 06:49:18;;;;;;;70.90;24.58;;;8.00;99.90;;;6.53;100.00;102384.00;5022047;28;20072;-77
2021/10/11 06:51:44;;;;;;;71.25;27.92;;;8.10;99.90;;;6.61;100.00;102457.25;5019342;28;20061;-77
2021/10/11 06:54:10;;;;;;;67.75;27.88;;;8.20;99.90;;;6.70;100.00;102452.88;4990459;28;20051;-77
2021/10/11 06:56:36;;;;;;;74.22;28.55;;;8.30;99.90;;;6.81;100.00;102460.69;5020939;28;20074;-77
2021/10/11 06:59:02;;;;;;;75.85;26.80;;;8.40;99.90;;;6.91;100.00;102472.88;5007707;28;20055;-77
2021/10/11 07:01:29;;;;;;;68.32;27.00;;;8.50;99.90;;;7.00;100.00;102519.13;5000110;28;20064;-77
2021/10/11 07:03:56;;;;;;;61.10;25.83;;;8.50;99.90;;;7.08;100.00;102498.13;5010423;28;20580;-77
2021/10/11 07:06:23;;;;;;;69.32;27.05;;;8.60;99.90;;;7.22;100.00;102540.00;5011387;28;20059;-77
2021/10/11 07:08:49;;;;;;;66.13;27.23;;;8.70;99.90;;;7.30;100.00;102567.03;5019368;28;20235;-77
2021/10/11 07:11:15;;;;;;;70.28;27.17;;;8.70;99.90;;;7.32;100.00;102589.75;5027774;28;20059;-77
2021/10/11 07:13:41;;;;;;;66.93;27.73;;;8.70;99.90;;;7.34;100.00;102605.47;5003355;28;20487;-77
2021/10/11 07:16:11;;;;;;;58.63;25.00;;;8.80;99.90;;;7.40;100.00;102631.66;4996419;28;20059;-77
2021/10/11 07:18:38;;;;;;;64.40;25.15;;;8.90;99.90;;;7.49;100.00;102647.34;5015508;28;20144;-77
2021/10/11 07:21:07;;;;;;;68.13;24.92;;;9.00;99.90;;;7.51;100.00;102634.25;4996659;28;20435;-77
2021/10/11 07:23:34;;;;;;;55.05;23.23;;;9.00;99.90;;;7.53;100.00;102664.81;5005673;28;20054;-77
2021/10/11 07:26:05;;;;;;;65.28;25.77;;;8.90;99.90;;;7.46;100.00;102694.53;4988590;28;20068;-77
2021/10/11 07:28:33;;;;;;;60.97;24.00;;;9.00;99.90;;;7.66;100.00;102691.00;5002003;28;20345;-77
2021/10/11 07:30:59;;;;;;;63.92;23.27;;;9.10;99.90;;;7.69;100.00;102746.03;5031404;28;20126;-76
2021/10/11 07:33:26;;;;;;;59.58;22.63;;;9.00;99.90;;;7.57;100.00;102763.56;4997713;28;20029;-77
2021/10/11 07:35:52;;;;;;;53.15;22.63;;;8.90;99.90;;;7.57;100.00;102784.53;5004269;28;20060;-76
2021/10/11 07:38:21;;;;;;;59.13;23.67;;;8.90;99.90;;;7.62;100.00;102791.50;4996956;28;20177;-77
2021/10/11 07:40:51;;;;;;;54.03;21.23;;;9.00;99.90;;;7.71;100.00;102817.72;5012026;28;20521;-76
2021/10/11 07:43:18;;;;;;;55.78;21.90;;;9.10;99.90;;;7.70;100.00;102800.25;5012874;28;20048;-77
2021/10/11 07:45:44;;;;;;;53.15;21.30;;;9.00;99.90;;;7.63;100.00;102850.97;5005270;28;20502;-77
2021/10/11 07:48:10;;;;;;;48.03;20.40;;;9.10;99.90;;;7.73;100.00;102906.03;5020312;28;20467;-76
2021/10/11 07:50:37;;;;;;;55.70;21.35;;;9.20;99.90;;;7.86;100.00;102916.50;4988014;28;20141;-76
2021/10/11 07:53:03;;;;;;;48.35;20.52;;;9.20;99.90;;;7.84;100.00;102865.78;5010705;28;20064;-76
2021/10/11 07:55:29;;;;;;;49.63;19.33;;;9.20;99.90;;;7.81;100.00;102867.53;4990775;28;20402;-76
2021/10/11 07:57:55;;;;;;;53.97;18.60;;;9.10;99.90;;;7.77;100.00;102883.28;4999822;28;20068;-76
2021/10/11 08:00:21;;;;;;;43.15;18.15;;;9.10;99.90;;;7.74;100.00;102884.16;5023753;28;20055;-76
2021/10/11 08:02:48;;;;;;;44.78;17.58;;;9.20;99.90;;;7.87;100.00;102945.34;5038441;28;20078;-76
2021/10/11 08:05:15;;;;;;;44.00;18.38;;;9.20;99.90;;;7.86;100.00;102947.97;4992310;28;20070;-76
2021/10/11 08:07:42;;;;;;;38.90;17.35;;;9.10;99.90;;;7.84;100.00;102971.59;5009932;28;20129;-77
2021/10/11 08:10:11;;;;;;;35.75;15.98;;;9.20;99.90;;;7.90;100.00;102982.06;5007371;28;20405;-76
2021/10/11 08:12:37;;;;;;;30.67;15.40;;;9.30;99.90;;;8.04;100.00;103018.81;5016333;28;20060;-76
2021/10/11 08:15:06;;;;;;;33.20;15.38;;;9.30;99.90;;;8.10;100.00;102995.22;5028106;28;20086;-76
2021/10/11 08:17:32;;;;;;;36.75;16.65;;;9.40;99.90;;;8.14;100.00;102999.59;5021055;28;20083;-76
2021/10/11 08:19:58;;;;;;;41.08;17.50;;;9.50;99.90;;;8.26;100.00;103017.06;5023807;28;20071;-76
2021/10/11 08:22:24;;;;;;;45.17;16.13;;;9.50;99.90;;;8.21;100.00;103010.97;5028690;28;20063;-77
2021/10/11 08:24:51;;;;;;;42.00;16.95;;;9.60;99.90;;;8.31;100.00;103017.94;5036374;28;20085;-76
2021/10/11 08:27:19;;;;;;;38.95;17.23;;;9.70;99.90;;;8.45;100.00;103014.47;5030165;28;20482;-76
2021/10/11 08:29:51;;;;;;;36.13;16.63;;;9.70;99.90;;;8.36;100.00;102953.19;5014836;28;20063;-76
2021/10/11 08:32:29;;;;;;;36.22;14.85;;;9.70;99.90;;;8.35;100.00;102919.06;5009302;28;20090;-76
2021/10/11 08:34:56;;;;;;;38.90;15.93;;;9.70;99.90;;;8.46;100.00;102951.44;5016947;28;20108;-76
2021/10/11 08:37:23;;;;;;;33.85;15.60;;;9.80;99.90;;;8.55;100.00;102937.41;5010858;28;20065;-76
2021/10/11 08:39:50;;;;;;;41.70;16.33;;;9.90;99.90;;;8.66;100.00;102933.03;5021236;28;20067;-76
2021/10/11 08:42:19;;;;;;;41.60;16.88;;;10.00;99.90;;;8.86;100.00;102929.44;4978990;28;20063;-76
2021/10/11 08:44:46;;;;;;;36.05;16.10;;;10.20;99.90;;;9.00;100.00;102915.34;5015856;28;20464;-77
2021/10/11 08:47:14;;;;;;;37.95;15.32;;;10.20;99.90;;;8.97;100.00;102885.59;5009038;28;20063;-77
2021/10/11 08:49:51;;;;;;;39.10;15.00;;;10.10;99.90;;;8.83;100.00;102847.16;5027890;28;20138;-76
2021/10/11 08:52:23;;;;;;;32.40;14.32;;;10.20;99.90;;;9.07;100.00;102865.38;5034637;28;20036;-76
2021/10/11 08:54:54;;;;;;;36.20;14.55;;;10.50;99.90;;;9.60;100.00;102900.94;5016828;28;20385;-76
2021/10/11 08:57:48;;;;;;;38.70;14.68;;;10.90;99.90;;;10.02;100.00;102891.81;5036838;28;20052;-77
2021/10/11 09:00:22;;;;;;;32.80;13.15;;;11.10;99.90;;;10.48;100.00;102901.03;5024133;28;20063;-76
2021/10/11 09:03:10;;;;;;;29.70;12.25;;;11.20;99.90;;;10.28;100.00;102835.38;4997135;28;20079;-76
2021/10/11 09:05:42;;;;;;;24.75;11.60;;;11.30;99.90;;;10.14;100.00;102818.88;5006860;28;20063;-76
2021/10/11 09:08:14;;;;;;;23.65;10.30;;;11.60;99.90;;;11.57;100.00;102941.72;4975572;28;20043;-76
2021/10/11 09:10:57;;;;;;;27.58;12.13;;;12.70;99.90;;;12.77;90.45;102944.91;4993208;28;20053;-76
2021/10/11 09:13:46;;;;;;;23.00;10.43;;;13.20;99.90;;;13.04;88.95;102932.84;4984229;28;20071;-76
2021/10/11 09:16:41;;;;;;;27.83;9.93;;;13.60;99.90;;;13.18;85.58;102895.53;4968095;28;20041;-76
2021/10/11 09:19:29;;;;;;;18.85;9.13;;;13.70;99.90;;;13.48;85.31;102834.88;4976302;28;20046;-76
2021/10/11 09:21:59;;;;;;;21.67;9.35;;;14.20;99.90;;;14.13;83.39;102514.34;4983683;28;20526;-77
2021/10/11 09:24:26;;;;;;;21.77;8.90;;;14.60;99.90;;;13.83;82.26;102608.03;4956795;28;20129;-76
2021/10/11 09:27:17;;;;;;;19.23;9.07;;;14.10;99.90;;;12.79;87.04;102639.09;4954110;28;20037;-77
2021/10/11 09:30:07;;;;;;;28.42;8.82;;;13.60;99.90;;;12.60;90.11;102741.75;4976848;28;20103;-76
2021/10/11 09:32:41;;;;;;;23.08;9.10;;;13.50;99.90;;;12.45;91.63;102676.91;4988234;28;20397;-76
2021/10/11 09:35:22;;;;;;;22.45;8.70;;;13.60;99.90;;;12.35;91.58;102638.38;4962780;28;20063;-76
2021/10/11 09:37:58;;;;;;;25.67;8.82;;;13.30;99.90;;;12.04;93.28;102607.41;4953532;28;20068;-76
2021/10/11 09:40:58;;;;;;;20.35;8.95;;;13.30;99.90;;;12.14;93.81;102583.41;4974837;28;20468;-76
2021/10/11 09:43:38;;;;;;;26.92;8.38;;;13.20;99.90;;;12.04;94.82;102583.66;4997570;28;20080;-76
2021/10/11 09:46:30;;;;;;;29.52;8.45;;;13.00;99.90;;;11.93;95.38;102564.56;4973761;28;20033;-77
2021/10/11 09:48:58;;;;;;;24.08;7.63;;;13.00;99.90;;;12.04;94.85;102553.75;4970188;28;20033;-76
2021/10/11 09:51:46;;;;;;;27.40;8.63;;;12.90;99.90;;;11.61;96.04;102523.03;4982512;28;20037;-76
2021/10/11 09:54:50;;;;;;;28.65;8.20;;;12.90;99.90;;;11.99;97.07;102556.50;5000548;28;20056;-77
2021/10/11 09:57:19;;;;;;;24.38;8.07;;;13.00;99.90;;;11.85;97.72;102522.44;4989824;28;20046;-76
2021/10/11 09:59:53;;;;;;;19.42;7.80;;;12.70;99.90;;;11.57;98.21;102508.16;4993751;28;20032;-76
2021/10/11 10:02:50;;;;;;;24.85;7.80;;;12.60;99.90;;;11.40;98.53;102485.69;4981634;28;20028;-77
2021/10/11 10:05:35;;;;;;;24.52;7.30;;;12.80;99.90;;;12.28;98.02;102555.78;4998319;28;20079;-76
2021/10/11 10:08:29;;;;;;;20.80;7.22;;;13.10;99.90;;;12.20;96.44;102509.34;4985264;28;20049;-76
2021/10/11 10:11:14;;;;;;;18.10;7.28;;;13.30;99.90;;;12.36;96.44;102505.41;4955475;28;20029;-76
2021/10/11 10:13:47;;;;;;;21.92;7.45;;;14.30;99.90;;;12.30;95.95;102487.06;4978847;28;20076;-76